createdAt,value
2022-11-12T00:01:55.487Z,7.00
2022-11-12T00:05:00.631Z,7.20
2022-11-12T00:08:06.237Z,7.20
2022-11-12T00:11:11.370Z,7.30
2022-11-12T00:14:16.482Z,7.20
2022-11-12T00:17:23.131Z,7.30
2022-11-12T00:20:28.899Z,7.30
2022-11-12T00:23:34.298Z,7.30
2022-11-12T00:26:39.836Z,7.10
2022-11-12T00:29:45.191Z,7.10
2022-11-12T00:32:51.675Z,7.10
2022-11-12T00:36:00.643Z,7.10
2022-11-12T00:39:06.271Z,7.10
2022-11-12T00:42:11.977Z,7.10
2022-11-12T00:45:17.193Z,7.10
2022-11-12T00:48:24.260Z,7.00
2022-11-12T00:51:29.573Z,7.00
2022-11-12T00:54:34.823Z,7.10
2022-11-12T00:57:40.314Z,7.00
2022-11-12T01:00:45.758Z,6.90
2022-11-12T01:03:52.479Z,6.70
2022-11-12T01:06:57.861Z,6.70
2022-11-12T01:10:02.982Z,6.90
2022-11-12T01:13:08.136Z,7.00
2022-11-12T01:16:15.964Z,7.10
2022-11-12T01:19:22.599Z,7.10
2022-11-12T01:22:27.973Z,7.20
2022-11-12T01:25:33.136Z,7.30
2022-11-12T01:28:38.884Z,7.40
2022-11-12T01:31:44.031Z,7.60
2022-11-12T01:34:53.211Z,7.50
2022-11-12T01:37:58.754Z,7.40
2022-11-12T01:41:04.122Z,7.40
2022-11-12T01:44:15.795Z,7.30
2022-11-12T01:47:23.918Z,7.40
2022-11-12T01:50:34.444Z,7.40
2022-11-12T01:53:43.950Z,7.50
2022-11-12T01:56:51.288Z,7.50
2022-11-12T02:00:04.344Z,7.50
2022-11-12T02:03:14.341Z,7.40
2022-11-12T02:06:22.063Z,7.30
2022-11-12T02:09:27.984Z,7.30
2022-11-12T02:12:51.683Z,7.10
2022-11-12T02:15:57.559Z,6.80
2022-11-12T02:19:03.698Z,6.80
2022-11-12T02:22:10.221Z,6.90
2022-11-12T02:25:19.744Z,7.00
2022-11-12T02:28:25.271Z,6.90
2022-11-12T02:31:30.825Z,7.00
2022-11-12T02:34:36.009Z,6.80
2022-11-12T02:37:42.773Z,6.60
2022-11-12T02:40:48.399Z,6.70
2022-11-12T02:43:53.624Z,6.70
2022-11-12T02:46:59.174Z,6.70
2022-11-12T02:50:04.712Z,6.80
2022-11-12T02:53:11.656Z,6.90
2022-11-12T02:56:17.050Z,6.90
2022-11-12T02:59:22.357Z,6.70
2022-11-12T03:02:27.595Z,6.60
2022-11-12T03:05:34.659Z,6.60
2022-11-12T03:08:41.816Z,6.50
2022-11-12T03:11:46.995Z,6.70
2022-11-12T03:14:52.594Z,6.70
2022-11-12T03:18:01.143Z,6.70
2022-11-12T03:21:07.017Z,6.70
2022-11-12T03:24:14.054Z,6.70
2022-11-12T03:27:19.652Z,6.90
2022-11-12T03:30:26.012Z,7.00
2022-11-12T03:33:31.276Z,6.90
2022-11-12T03:36:36.379Z,6.70
2022-11-12T03:39:43.238Z,6.80
2022-11-12T03:42:50.165Z,6.90
2022-11-12T03:45:55.375Z,7.10
2022-11-12T03:49:02.591Z,7.00
2022-11-12T03:52:08.083Z,6.70
2022-11-12T03:55:16.018Z,6.70
2022-11-12T03:58:21.836Z,6.70
2022-11-12T04:01:27.422Z,6.70
2022-11-12T04:04:46.848Z,6.80
2022-11-12T04:08:16.341Z,6.80
2022-11-12T04:11:23.264Z,6.80
2022-11-12T04:14:28.632Z,7.00
2022-11-12T04:17:51.185Z,7.00
2022-11-12T04:21:13.995Z,7.10
2022-11-12T04:24:38.851Z,7.40
2022-11-12T04:27:45.774Z,7.50
2022-11-12T04:30:50.105Z,7.30
2022-11-12T04:33:55.385Z,7.40
2022-11-12T04:37:00.689Z,7.40
2022-11-12T04:40:28.419Z,7.30
2022-11-12T04:43:52.597Z,7.30
2022-11-12T04:46:58.035Z,7.20
2022-11-12T04:50:04.971Z,7.00
2022-11-12T04:53:10.814Z,7.00
2022-11-12T04:56:16.255Z,7.00
2022-11-12T04:59:22.972Z,7.10
2022-11-12T05:02:28.278Z,7.10
2022-11-12T05:05:34.316Z,7.10
2022-11-12T05:08:40.012Z,7.10
2022-11-12T05:11:45.463Z,7.20
2022-11-12T05:14:52.277Z,7.20
2022-11-12T05:17:57.754Z,7.20
2022-11-12T05:21:23.854Z,7.20
2022-11-12T05:24:41.395Z,7.20
2022-11-12T05:27:48.071Z,6.90
2022-11-12T05:30:55.179Z,6.80
2022-11-12T05:34:00.463Z,6.70
2022-11-12T05:37:08.212Z,6.60
2022-11-12T05:40:14.614Z,6.40
2022-11-12T05:43:20.283Z,6.50
2022-11-12T05:46:27.013Z,6.40
2022-11-12T05:49:32.291Z,6.50
2022-11-12T05:52:37.669Z,6.50
2022-11-12T05:55:42.907Z,6.60
2022-11-12T05:58:48.051Z,6.70
2022-11-12T06:01:54.889Z,6.60
2022-11-12T06:05:00.315Z,6.40
2022-11-12T06:08:07.016Z,6.50
2022-11-12T06:11:12.589Z,6.50
2022-11-12T06:14:17.887Z,6.50
2022-11-12T06:17:24.654Z,6.50
2022-11-12T06:20:30.112Z,6.50
2022-11-12T06:23:35.433Z,6.60
2022-11-12T06:26:40.752Z,6.70
2022-11-12T06:29:45.968Z,6.70
2022-11-12T06:32:52.900Z,6.80
2022-11-12T06:36:02.843Z,6.70
2022-11-12T06:39:08.160Z,6.60
2022-11-12T06:42:13.465Z,6.60
2022-11-12T06:45:19.159Z,6.50
2022-11-12T06:48:26.254Z,6.50
2022-11-12T06:51:31.795Z,6.60
2022-11-12T06:54:36.917Z,6.40
2022-11-12T06:57:41.976Z,6.30
2022-11-12T07:00:47.332Z,6.30
2022-11-12T07:03:54.843Z,6.40
2022-11-12T07:07:00.297Z,6.50
2022-11-12T07:10:06.249Z,6.40
2022-11-12T07:13:12.414Z,6.40
2022-11-12T07:16:18.778Z,6.40
2022-11-12T07:19:25.733Z,6.40
2022-11-12T07:22:30.992Z,6.40
2022-11-12T07:25:36.315Z,6.40
2022-11-12T07:28:41.845Z,6.40
2022-11-12T07:31:47.162Z,6.40
2022-11-12T07:34:53.866Z,6.50
2022-11-12T07:37:59.751Z,6.30
2022-11-12T07:41:07.440Z,6.30
2022-11-12T07:44:12.993Z,6.40
2022-11-12T07:47:18.748Z,6.20
2022-11-12T07:50:25.559Z,6.20
2022-11-12T07:53:31.457Z,6.20
2022-11-12T07:56:37.000Z,6.10
2022-11-12T07:59:46.121Z,5.90
2022-11-12T08:02:51.932Z,5.70
2022-11-12T08:06:00.907Z,5.70
2022-11-12T08:09:07.858Z,5.60
2022-11-12T08:12:13.104Z,5.60
2022-11-12T08:15:18.393Z,5.60
2022-11-12T08:18:23.798Z,5.60
2022-11-12T08:21:30.868Z,5.60
2022-11-12T08:24:36.108Z,5.50
2022-11-12T08:27:41.743Z,5.60
2022-11-12T08:30:47.378Z,5.50
2022-11-12T08:33:52.913Z,5.70
2022-11-12T08:37:00.565Z,6.00
2022-11-12T08:40:06.833Z,6.30
2022-11-12T08:43:12.708Z,6.40
2022-11-12T08:46:18.083Z,6.30
2022-11-12T08:49:23.368Z,6.40
2022-11-12T08:52:29.744Z,6.30
2022-11-12T08:55:36.133Z,6.50
2022-11-12T08:58:41.316Z,6.60
2022-11-12T09:01:46.533Z,6.90
2022-11-12T09:04:51.871Z,7.20
2022-11-12T09:08:03.082Z,7.30
2022-11-12T09:11:08.779Z,7.40
2022-11-12T09:14:14.302Z,7.40
2022-11-12T09:17:19.917Z,7.40
2022-11-12T09:20:25.339Z,7.70
2022-11-12T09:23:32.079Z,7.90
2022-11-12T09:26:37.680Z,8.00
2022-11-12T09:29:43.037Z,8.00
2022-11-12T09:32:48.427Z,8.10
2022-11-12T09:35:55.039Z,8.20
2022-11-12T09:39:02.167Z,8.20
2022-11-12T09:42:08.543Z,8.40
2022-11-12T09:45:19.561Z,8.50
2022-11-12T09:48:28.533Z,8.50
2022-11-12T09:51:36.921Z,8.50
2022-11-12T09:54:43.862Z,8.50
2022-11-12T09:57:49.273Z,8.50
2022-11-12T10:00:57.733Z,8.60
2022-11-12T10:04:17.285Z,8.60
2022-11-12T10:07:35.646Z,8.60
2022-11-12T10:10:47.991Z,8.50
2022-11-12T10:14:04.582Z,8.50
2022-11-12T10:17:14.908Z,8.60
2022-11-12T10:20:26.592Z,8.60
2022-11-12T10:23:42.157Z,8.60
2022-11-12T10:26:49.859Z,8.60
2022-11-12T10:30:01.659Z,8.60
2022-11-12T10:33:07.516Z,8.60
2022-11-12T10:36:20.130Z,8.70
2022-11-12T10:39:34.253Z,8.50
2022-11-12T10:42:57.907Z,8.50
2022-11-12T10:46:19.019Z,8.60
2022-11-12T10:49:25.977Z,8.60
2022-11-12T10:52:31.666Z,8.60
2022-11-12T10:55:38.887Z,8.60
2022-11-12T10:58:46.023Z,8.60
2022-11-12T11:01:57.833Z,8.60
2022-11-12T11:05:28.523Z,8.70
2022-11-12T11:08:40.474Z,8.70
2022-11-12T11:11:51.135Z,8.60
2022-11-12T11:15:10.740Z,8.50
2022-11-12T11:18:16.396Z,8.70
2022-11-12T11:21:49.589Z,8.80
2022-11-12T11:25:05.814Z,8.60
2022-11-12T11:28:20.689Z,8.50
2022-11-12T11:31:37.900Z,8.50
2022-11-12T11:34:53.706Z,8.70
2022-11-12T11:38:21.523Z,8.80
2022-11-12T11:41:46.318Z,8.90
2022-11-12T11:45:00.567Z,8.90
2022-11-12T11:48:17.695Z,9.10
2022-11-12T11:51:47.270Z,9.10
2022-11-12T11:55:05.435Z,9.00
2022-11-12T11:58:31.628Z,9.10
2022-11-12T12:01:53.187Z,9.10
2022-11-12T12:05:10.129Z,8.90
2022-11-12T12:08:22.085Z,8.80
2022-11-12T12:11:33.038Z,8.90
2022-11-12T12:14:51.464Z,9.00
2022-11-12T12:18:06.704Z,9.10
2022-11-12T12:21:17.521Z,9.10
2022-11-12T12:24:28.150Z,8.70
2022-11-12T12:27:37.458Z,8.50
2022-11-12T12:30:46.472Z,8.40
2022-11-12T12:33:56.807Z,8.20
2022-11-12T12:37:11.489Z,8.20
2022-11-12T12:40:20.850Z,8.10
2022-11-12T12:43:33.463Z,8.10
2022-11-12T12:46:43.350Z,8.00
2022-11-12T12:49:51.762Z,8.00
2022-11-12T12:53:05.712Z,8.10
2022-11-12T12:56:44.191Z,8.20
2022-11-12T12:59:49.471Z,8.20
2022-11-12T13:02:55.032Z,8.10
2022-11-12T13:06:16.095Z,8.10
2022-11-12T13:09:26.212Z,8.00
2022-11-12T13:13:03.475Z,8.00
2022-11-12T13:16:09.273Z,8.00
2022-11-12T13:19:27.774Z,8.30
2022-11-12T13:22:50.685Z,8.40
2022-11-12T13:26:53.506Z,8.60
2022-11-12T13:29:58.701Z,8.60
2022-11-12T13:33:31.032Z,8.70
2022-11-12T13:36:36.386Z,8.50
2022-11-12T13:39:41.653Z,8.30
2022-11-12T13:42:51.425Z,8.30
2022-11-12T13:46:01.072Z,8.50
2022-11-12T13:49:11.091Z,8.60
2022-11-12T13:52:19.604Z,8.80
2022-11-12T13:55:25.234Z,8.90
2022-11-12T13:58:33.643Z,9.00
2022-11-12T14:01:38.828Z,9.10
2022-11-12T14:04:44.022Z,9.30
2022-11-12T14:08:14.887Z,9.20
2022-11-12T14:11:46.219Z,9.10
2022-11-12T14:15:08.520Z,9.10
2022-11-12T14:18:21.787Z,9.20
2022-11-12T14:21:27.420Z,9.30
2022-11-12T14:24:34.140Z,9.50
2022-11-12T14:27:39.400Z,9.40
2022-11-12T14:30:46.223Z,9.50
2022-11-12T14:33:51.523Z,9.40
2022-11-12T14:36:57.466Z,9.40
2022-11-12T14:40:02.855Z,9.40
2022-11-12T14:43:27.082Z,9.30
2022-11-12T14:46:39.510Z,9.30
2022-11-12T14:49:48.400Z,9.10
2022-11-12T14:52:57.719Z,9.10
2022-11-12T14:56:05.413Z,9.00
2022-11-12T14:59:14.759Z,8.90
2022-11-12T15:02:36.856Z,9.00
2022-11-12T15:05:56.100Z,9.00
2022-11-12T15:09:01.465Z,9.10
2022-11-12T15:12:10.003Z,9.00
2022-11-12T15:15:22.112Z,8.90
2022-11-12T15:18:30.355Z,8.90
2022-11-12T15:21:36.551Z,8.90
2022-11-12T15:24:44.652Z,9.10
2022-11-12T15:27:50.219Z,9.00
2022-11-12T15:31:03.344Z,9.00
2022-11-12T15:34:30.633Z,8.90
2022-11-12T15:37:42.974Z,8.90
2022-11-12T15:40:57.295Z,8.80
2022-11-12T15:44:03.076Z,8.60
2022-11-12T15:47:14.494Z,8.50
2022-11-12T15:50:23.614Z,8.70
2022-11-12T15:53:30.580Z,8.70
2022-11-12T15:56:36.269Z,8.80
2022-11-12T15:59:42.194Z,8.80
2022-11-12T16:02:50.408Z,8.70
2022-11-12T16:05:57.223Z,8.80
2022-11-12T16:09:02.538Z,8.90
2022-11-12T16:12:13.052Z,8.90
2022-11-12T16:15:25.436Z,9.00
2022-11-12T16:18:30.667Z,8.90
2022-11-12T16:21:37.254Z,9.00
2022-11-12T16:24:43.668Z,8.90
2022-11-12T16:27:54.419Z,8.80
2022-11-12T16:31:01.016Z,8.70
2022-11-12T16:34:06.684Z,8.70
2022-11-12T16:37:13.864Z,8.60
2022-11-12T16:40:23.106Z,8.60
2022-11-12T16:43:28.720Z,8.60
2022-11-12T16:46:39.226Z,8.60
2022-11-12T16:49:44.931Z,8.60
2022-11-12T16:52:52.729Z,8.50
2022-11-12T16:55:58.158Z,8.40
2022-11-12T16:59:04.251Z,8.30
2022-11-12T17:02:16.076Z,8.30
2022-11-12T17:05:24.189Z,8.20
2022-11-12T17:08:33.904Z,8.20
2022-11-12T17:11:39.903Z,8.20
2022-11-12T17:14:45.794Z,8.20
2022-11-12T17:17:54.227Z,8.20
2022-11-12T17:21:11.379Z,8.20
2022-11-12T17:24:18.264Z,8.30
2022-11-12T17:27:23.669Z,8.40
2022-11-12T17:30:28.992Z,8.50
2022-11-12T17:33:37.868Z,8.50
2022-11-12T17:36:44.089Z,8.50
2022-11-12T17:39:51.027Z,8.40
2022-11-12T17:42:56.400Z,8.40
2022-11-12T17:46:02.059Z,8.30
2022-11-12T17:49:07.607Z,8.40
2022-11-12T17:52:12.955Z,8.30
2022-11-12T17:55:19.868Z,8.30
2022-11-12T17:58:25.528Z,8.30
2022-11-12T18:01:32.233Z,8.40
2022-11-12T18:04:37.776Z,8.40
2022-11-12T18:07:43.145Z,8.40
2022-11-12T18:10:49.673Z,8.40
2022-11-12T18:13:55.280Z,8.40
2022-11-12T18:17:01.357Z,8.30
2022-11-12T18:20:08.090Z,8.30
2022-11-12T18:23:13.747Z,8.30
2022-11-12T18:26:24.005Z,8.30
2022-11-12T18:29:29.765Z,8.40
2022-11-12T18:32:35.036Z,8.30
2022-11-12T18:35:40.409Z,8.30
2022-11-12T18:38:46.806Z,8.20
2022-11-12T18:41:54.850Z,8.20
2022-11-12T18:45:00.305Z,8.10
2022-11-12T18:48:05.863Z,8.00
2022-11-12T18:51:12.793Z,7.90
2022-11-12T18:54:18.118Z,8.00
2022-11-12T18:57:24.896Z,8.00
2022-11-12T19:00:30.265Z,7.80
2022-11-12T19:03:35.984Z,7.80
2022-11-12T19:06:41.486Z,7.80
2022-11-12T19:09:46.801Z,7.90
2022-11-12T19:12:53.583Z,7.90
2022-11-12T19:16:05.078Z,8.10
2022-11-12T19:19:11.036Z,8.00
2022-11-12T19:22:16.712Z,8.00
2022-11-12T19:25:22.085Z,8.00
2022-11-12T19:28:29.259Z,8.00
2022-11-12T19:31:35.130Z,8.10
2022-11-12T19:34:40.702Z,8.00
2022-11-12T19:37:46.019Z,8.00
2022-11-12T19:40:51.416Z,7.90
2022-11-12T19:43:58.135Z,7.90
2022-11-12T19:47:03.531Z,8.00
2022-11-12T19:50:09.772Z,8.00
2022-11-12T19:53:15.571Z,8.00
2022-11-12T19:56:22.063Z,8.10
2022-11-12T19:59:29.025Z,8.00
2022-11-12T20:02:35.150Z,7.90
2022-11-12T20:05:40.703Z,7.90
2022-11-12T20:08:46.173Z,8.00
2022-11-12T20:11:51.658Z,8.10
2022-11-12T20:14:58.218Z,8.20
2022-11-12T20:18:03.533Z,8.20
2022-11-12T20:21:10.625Z,7.90
2022-11-12T20:24:16.208Z,8.00
2022-11-12T20:27:23.251Z,8.00
2022-11-12T20:30:30.395Z,7.90
2022-11-12T20:33:40.971Z,8.10
2022-11-12T20:36:47.844Z,8.00
2022-11-12T20:39:52.976Z,8.20
2022-11-12T20:42:58.327Z,8.30
2022-11-12T20:46:04.949Z,8.30
2022-11-12T20:49:10.117Z,8.30
2022-11-12T20:52:15.522Z,8.20
2022-11-12T20:55:20.867Z,8.20
2022-11-12T20:58:27.896Z,8.00
2022-11-12T21:01:35.175Z,8.00
2022-11-12T21:04:40.542Z,8.00
2022-11-12T21:07:45.836Z,7.90
2022-11-12T21:10:51.578Z,7.70
2022-11-12T21:13:57.046Z,7.70
2022-11-12T21:17:03.448Z,7.50
2022-11-12T21:20:09.697Z,7.50
2022-11-12T21:23:14.707Z,7.40
2022-11-12T21:26:21.780Z,7.40
2022-11-12T21:29:27.299Z,7.40
2022-11-12T21:32:33.968Z,7.50
2022-11-12T21:35:39.105Z,7.60
2022-11-12T21:38:44.393Z,7.70
2022-11-12T21:41:49.836Z,7.60
2022-11-12T21:44:55.159Z,7.50
2022-11-12T21:48:01.645Z,7.60
2022-11-12T21:51:07.671Z,7.60
2022-11-12T21:54:15.135Z,7.70
2022-11-12T21:57:20.412Z,7.70
2022-11-12T22:00:41.394Z,7.80
2022-11-12T22:03:51.432Z,7.80
2022-11-12T22:06:56.785Z,7.90
2022-11-12T22:10:01.931Z,7.80
2022-11-12T22:13:26.067Z,7.80
2022-11-12T22:16:32.265Z,7.80
2022-11-12T22:19:39.066Z,7.80
2022-11-12T22:22:44.397Z,7.90
2022-11-12T22:25:50.608Z,7.70
2022-11-12T22:28:58.172Z,7.80
2022-11-12T22:32:03.468Z,7.70
2022-11-12T22:35:10.875Z,7.70
2022-11-12T22:38:16.227Z,7.70
2022-11-12T22:41:23.468Z,7.80
2022-11-12T22:44:28.974Z,7.90
2022-11-12T22:47:34.435Z,7.80
2022-11-12T22:50:41.430Z,7.80
2022-11-12T22:53:47.207Z,7.80
2022-11-12T22:56:52.538Z,7.70
2022-11-12T22:59:58.535Z,7.60
2022-11-12T23:03:04.000Z,7.70
2022-11-12T23:06:10.947Z,7.70
2022-11-12T23:09:17.314Z,7.70
2022-11-12T23:12:22.818Z,7.50
2022-11-12T23:15:29.783Z,7.50
2022-11-12T23:18:35.322Z,7.20
2022-11-12T23:21:41.860Z,7.10
2022-11-12T23:24:47.443Z,7.00
2022-11-12T23:27:52.821Z,7.00
2022-11-12T23:30:58.693Z,6.90
2022-11-12T23:34:04.207Z,6.90
2022-11-12T23:37:10.808Z,6.80
2022-11-12T23:40:16.793Z,6.80
2022-11-12T23:43:22.373Z,6.90
2022-11-12T23:46:27.931Z,6.80
2022-11-12T23:49:33.248Z,6.80
2022-11-12T23:52:39.939Z,6.90
2022-11-12T23:55:45.861Z,7.00
2022-11-12T23:58:54.406Z,7.00
